This is the latest recevied weather packets stored in our database for station/object 9W4GWK-G. If no packets are shown the sender has not sent any weather packets the latest 1 day(s).
| Time | Temp. | Humidity | Pressure | Rain* | Wind** | Luminosity | Snow |
|---|---|---|---|---|---|---|---|
| 1778080965 | 27.22° C | 48% | 1010.5 hPa | - | - | - | - |
| 1778080063 | 28.33° C | 55% | 1010.6 hPa | - | - | - | - |
| 1778079161 | 29.44° C | 45% | 1010.4 hPa | - | - | - | - |
| 1778078259 | 30.56° C | 50% | 1010.2 hPa | - | - | - | - |
| 1778076454 | 32.78° C | 68% | 1009.9 hPa | - | - | - | - |
| 1778075552 | 32.78° C | 68% | 1009.9 hPa | - | - | - | - |
| 1778074650 | 32.78° C | 68% | 1009.8 hPa | - | - | - | - |
| 1778073748 | 32.78° C | 68% | 1009.5 hPa | - | - | - | - |
| 1778069238 | 32.78° C | 68% | 1008 hPa | - | - | - | - |
| 1778068336 | 32.78° C | 68% | 1008.1 hPa | - | - | - | - |
| 1778067433 | 32.78° C | 69% | 1008.1 hPa | - | - | - | - |
| 1778065629 | 32.78° C | 68% | 1008.2 hPa | - | - | - | - |
| 1778062020 | 33.33° C | 68% | 1007.2 hPa | - | - | - | - |
| 1778061118 | 32.78° C | 69% | 1007.3 hPa | - | - | - | - |
| 1778060216 | 32.78° C | 69% | 1007.5 hPa | - | - | - | - |
| 1778059314 | 33.33° C | 68% | 1007.5 hPa | - | - | - | - |
| 1778058412 | 33.33° C | 68% | 1007.4 hPa | - | - | - | - |
| 1778057510 | 33.33° C | 67% | 1007.2 hPa | - | - | - | - |
| 1778056608 | 33.33° C | 67% | 1007.1 hPa | - | - | - | - |
| 1778054804 | 33.33° C | 66% | 1006.9 hPa | - | - | - | - |
| 1778046687 | 33.33° C | 65% | 1008.5 hPa | - | - | - | - |
| 1778045785 | 33.33° C | 64% | 1008.7 hPa | - | - | - | - |
| 1778044883 | 33.33° C | 64% | 1009.1 hPa | - | - | - | - |
| 1778043981 | 33.33° C | 64% | 1009.2 hPa | - | - | - | - |
| 1778043079 | 32.78° C | 64% | 1009.5 hPa | - | - | - | - |
* Rain since midnight (hover to see other rain measurements)
** Current wind speed in m/s (hover to see current wind gust speed)